createdAt,value
2022-10-22T00:01:38.860Z,3.17
2022-10-22T00:04:06.065Z,3.10
2022-10-22T00:06:32.674Z,3.53
2022-10-22T00:08:59.364Z,3.97
2022-10-22T00:11:25.977Z,2.57
2022-10-22T00:13:52.501Z,2.60
2022-10-22T00:16:19.044Z,3.30
2022-10-22T00:18:45.610Z,3.00
2022-10-22T00:21:12.374Z,3.53
2022-10-22T00:23:43.120Z,2.90
2022-10-22T00:26:10.070Z,3.20
2022-10-22T00:28:36.901Z,4.17
2022-10-22T00:31:03.935Z,3.50
2022-10-22T00:33:31.007Z,3.40
2022-10-22T00:35:57.739Z,2.40
2022-10-22T00:38:24.262Z,3.90
2022-10-22T00:40:50.896Z,4.83
2022-10-22T00:43:19.515Z,4.17
2022-10-22T00:45:46.703Z,2.13
2022-10-22T00:48:17.847Z,1.97
2022-10-22T00:50:52.633Z,2.50
2022-10-22T00:53:25.088Z,3.70
2022-10-22T00:55:54.328Z,2.33
2022-10-22T00:58:24.451Z,2.00
2022-10-22T01:00:51.353Z,2.10
2022-10-22T01:03:17.934Z,1.93
2022-10-22T01:05:53.771Z,2.43
2022-10-22T01:08:49.020Z,1.97
2022-10-22T01:11:27.498Z,3.27
2022-10-22T01:14:19.546Z,2.23
2022-10-22T01:16:59.727Z,2.77
2022-10-22T01:19:53.931Z,2.40
2022-10-22T01:22:50.697Z,1.90
2022-10-22T01:25:36.525Z,2.03
2022-10-22T01:28:39.535Z,2.20
2022-10-22T01:31:07.798Z,6.37
2022-10-22T01:33:35.400Z,3.20
2022-10-22T01:36:04.095Z,3.70
2022-10-22T01:38:31.381Z,3.53
2022-10-22T01:40:59.079Z,2.50
2022-10-22T01:43:25.689Z,3.33
2022-10-22T01:45:57.392Z,1.63
2022-10-22T01:48:35.841Z,2.63
2022-10-22T01:51:11.299Z,2.43
2022-10-22T01:54:16.793Z,2.80
2022-10-22T01:57:17.894Z,1.87
2022-10-22T01:59:50.457Z,2.57
2022-10-22T02:02:53.490Z,1.90
2022-10-22T02:05:27.239Z,2.73
2022-10-22T02:08:21.797Z,2.47
2022-10-22T02:10:49.309Z,2.67
2022-10-22T02:13:28.000Z,3.90
2022-10-22T02:15:55.676Z,2.10
2022-10-22T02:18:26.453Z,2.50
2022-10-22T02:20:53.994Z,1.53
2022-10-22T02:23:21.736Z,3.10
2022-10-22T02:25:53.652Z,2.27
2022-10-22T02:28:51.971Z,2.40
2022-10-22T02:31:32.297Z,3.23
2022-10-22T02:34:04.925Z,2.37
2022-10-22T02:36:32.220Z,3.60
2022-10-22T02:39:00.019Z,2.00
2022-10-22T02:41:27.251Z,1.80
2022-10-22T02:43:55.502Z,2.37
2022-10-22T02:46:25.945Z,1.77
2022-10-22T02:48:52.456Z,1.83
2022-10-22T02:51:18.981Z,3.27
2022-10-22T02:53:45.519Z,1.67
2022-10-22T02:56:12.515Z,1.30
2022-10-22T02:58:38.997Z,2.33
2022-10-22T03:01:05.765Z,1.80
2022-10-22T03:03:32.357Z,1.83
2022-10-22T03:05:58.933Z,1.87
2022-10-22T03:08:25.529Z,1.30
2022-10-22T03:10:52.083Z,1.60
2022-10-22T03:13:18.606Z,2.73
2022-10-22T03:15:45.161Z,2.87
2022-10-22T03:18:11.939Z,1.93
2022-10-22T03:20:38.451Z,3.07
2022-10-22T03:23:05.052Z,2.70
2022-10-22T03:25:34.372Z,2.10
2022-10-22T03:28:05.247Z,4.27
2022-10-22T03:30:32.182Z,4.10
2022-10-22T03:32:59.074Z,1.30
2022-10-22T03:35:25.778Z,1.33
2022-10-22T03:37:52.620Z,2.57
2022-10-22T03:40:20.094Z,1.67
2022-10-22T03:42:46.960Z,3.33
2022-10-22T03:45:13.470Z,2.83
2022-10-22T03:47:40.406Z,2.53
2022-10-22T03:50:07.797Z,2.43
2022-10-22T03:52:39.793Z,1.37
2022-10-22T03:55:07.254Z,1.60
2022-10-22T03:57:33.885Z,4.03
2022-10-22T04:00:00.440Z,1.70
2022-10-22T04:02:27.042Z,1.57
2022-10-22T04:04:53.568Z,2.30
2022-10-22T04:07:20.197Z,1.60
2022-10-22T04:09:46.710Z,1.60
2022-10-22T04:12:13.210Z,2.57
2022-10-22T04:14:39.823Z,2.70
2022-10-22T04:17:06.326Z,2.47
2022-10-22T04:19:33.009Z,2.40
2022-10-22T04:22:00.524Z,1.83
2022-10-22T04:24:27.176Z,2.50
2022-10-22T04:26:55.031Z,5.23
2022-10-22T04:29:21.643Z,4.37
2022-10-22T04:31:48.181Z,1.70
2022-10-22T04:34:14.676Z,1.60
2022-10-22T04:36:41.214Z,1.53
2022-10-22T04:39:07.941Z,1.60
2022-10-22T04:41:36.489Z,1.40
2022-10-22T04:44:03.715Z,1.60
2022-10-22T04:46:33.023Z,1.40
2022-10-22T04:48:59.855Z,2.80
2022-10-22T04:51:27.638Z,1.70
2022-10-22T04:53:54.937Z,2.57
2022-10-22T04:56:27.929Z,1.77
2022-10-22T04:59:03.453Z,1.87
2022-10-22T05:01:43.213Z,1.40
2022-10-22T05:04:16.131Z,1.57
2022-10-22T05:06:43.334Z,2.40
2022-10-22T05:09:21.152Z,2.73
2022-10-22T05:11:50.191Z,1.67
2022-10-22T05:14:22.724Z,1.70
2022-10-22T05:16:50.191Z,2.00
2022-10-22T05:19:29.489Z,2.00
2022-10-22T05:21:58.497Z,1.60
2022-10-22T05:24:26.289Z,1.53
2022-10-22T05:26:54.185Z,1.77
2022-10-22T05:29:21.163Z,1.47
2022-10-22T05:31:47.905Z,1.30
2022-10-22T05:34:14.993Z,1.90
2022-10-22T05:36:41.718Z,1.47
2022-10-22T05:39:08.399Z,2.20
2022-10-22T05:41:38.359Z,1.57
2022-10-22T05:44:05.728Z,1.40
2022-10-22T05:46:35.003Z,1.27
2022-10-22T05:49:04.021Z,1.60
2022-10-22T05:51:36.472Z,1.50
2022-10-22T05:54:06.288Z,1.90
2022-10-22T05:56:34.493Z,1.40
2022-10-22T06:01:35.332Z,1.70
2022-10-22T06:04:04.751Z,1.80
2022-10-22T06:06:36.044Z,2.97
2022-10-22T06:09:16.807Z,1.13
2022-10-22T06:11:43.417Z,1.40
2022-10-22T06:14:11.087Z,1.67
2022-10-22T06:16:37.956Z,1.47
2022-10-22T06:19:04.583Z,6.93
2022-10-22T06:21:32.277Z,5.73
2022-10-22T06:24:00.582Z,4.43
2022-10-22T06:26:27.695Z,6.80
2022-10-22T06:28:55.905Z,15.77
2022-10-22T06:31:22.912Z,8.80
2022-10-22T06:33:49.469Z,6.40
2022-10-22T06:36:20.087Z,7.07
2022-10-22T06:38:46.961Z,11.50
2022-10-22T06:41:16.053Z,4.20
2022-10-22T06:43:45.246Z,7.33
2022-10-22T06:46:14.901Z,5.40
2022-10-22T06:48:48.377Z,4.47
2022-10-22T06:51:14.925Z,5.17
2022-10-22T06:53:41.806Z,5.80
2022-10-22T06:56:10.442Z,5.50
2022-10-22T06:58:37.364Z,9.07
2022-10-22T07:01:12.748Z,2.30
2022-10-22T07:03:40.732Z,6.23
2022-10-22T07:06:09.704Z,2.10
2022-10-22T07:08:36.957Z,2.50
2022-10-22T07:11:16.261Z,4.17
2022-10-22T07:13:43.371Z,2.10
2022-10-22T07:16:10.444Z,4.17
2022-10-22T07:18:38.823Z,5.97
2022-10-22T07:21:06.460Z,2.80
2022-10-22T07:23:33.156Z,3.10
2022-10-22T07:26:02.294Z,4.90
2022-10-22T07:28:30.497Z,5.13
2022-10-22T07:30:57.035Z,8.03
2022-10-22T07:33:23.578Z,6.57
2022-10-22T07:35:50.171Z,6.40
2022-10-22T07:38:16.852Z,9.17
2022-10-22T07:40:43.382Z,15.17
2022-10-22T07:43:09.902Z,5.30
2022-10-22T07:45:36.469Z,8.17
2022-10-22T07:48:03.193Z,9.17
2022-10-22T07:50:29.786Z,11.63
2022-10-22T07:52:58.198Z,10.40
2022-10-22T07:55:25.161Z,9.30
2022-10-22T07:57:51.736Z,7.57
2022-10-22T08:00:20.603Z,6.50
2022-10-22T08:02:49.869Z,7.70
2022-10-22T08:05:16.521Z,5.10
2022-10-22T08:07:43.621Z,7.13
2022-10-22T08:10:11.545Z,6.80
2022-10-22T08:12:38.983Z,6.03
2022-10-22T08:15:06.374Z,6.90
2022-10-22T08:17:32.927Z,7.57
2022-10-22T08:19:59.472Z,5.53
2022-10-22T08:22:25.981Z,6.53
2022-10-22T08:24:53.415Z,6.90
2022-10-22T08:27:19.972Z,5.43
2022-10-22T08:29:46.485Z,10.10
2022-10-22T08:32:13.607Z,3.60
2022-10-22T08:34:40.253Z,6.47
2022-10-22T08:37:08.416Z,8.30
2022-10-22T08:39:34.949Z,10.23
2022-10-22T08:42:27.925Z,4.50
2022-10-22T08:44:59.821Z,4.70
2022-10-22T08:47:52.671Z,5.80
2022-10-22T08:50:48.444Z,9.03
2022-10-22T08:53:22.147Z,5.03
2022-10-22T08:55:52.584Z,5.10
2022-10-22T08:59:10.112Z,14.67
2022-10-22T09:01:41.496Z,5.43
2022-10-22T09:04:41.464Z,2.77
2022-10-22T09:07:10.158Z,3.57
2022-10-22T09:09:43.257Z,4.00
2022-10-22T09:12:20.134Z,3.20
2022-10-22T09:14:47.152Z,4.70
2022-10-22T09:17:20.929Z,4.33
2022-10-22T09:20:29.100Z,4.07
2022-10-22T09:23:02.775Z,5.20
2022-10-22T09:25:33.129Z,3.97
2022-10-22T09:27:59.733Z,10.60
2022-10-22T09:30:29.777Z,6.80
2022-10-22T09:33:01.578Z,8.70
2022-10-22T09:35:28.668Z,4.03
2022-10-22T09:37:56.812Z,3.13
2022-10-22T09:40:23.923Z,7.90
2022-10-22T09:42:50.515Z,3.90
2022-10-22T09:45:26.476Z,3.03
2022-10-22T09:48:19.391Z,2.70
2022-10-22T09:50:48.812Z,4.63
2022-10-22T09:53:41.490Z,4.33
2022-10-22T09:56:28.499Z,4.07
2022-10-22T09:58:58.289Z,3.50
2022-10-22T10:01:34.092Z,3.03
2022-10-22T10:04:09.422Z,3.33
2022-10-22T10:06:40.102Z,3.83
2022-10-22T10:09:20.144Z,2.53
2022-10-22T10:12:06.046Z,5.87
2022-10-22T10:14:53.034Z,3.33
2022-10-22T10:17:47.887Z,5.87
2022-10-22T10:20:46.782Z,2.70
2022-10-22T10:23:46.720Z,4.10
2022-10-22T10:26:34.440Z,3.77
2022-10-22T10:29:13.628Z,5.87
2022-10-22T10:31:40.169Z,2.93
2022-10-22T10:34:27.662Z,6.93
2022-10-22T10:37:22.315Z,3.93
2022-10-22T10:40:14.015Z,1.90
2022-10-22T10:42:52.829Z,3.03
2022-10-22T10:45:45.101Z,2.30
2022-10-22T10:48:48.574Z,4.30
2022-10-22T10:51:39.512Z,5.80
2022-10-22T10:54:16.574Z,3.33
2022-10-22T10:57:02.163Z,2.87
2022-10-22T10:59:56.079Z,2.47
2022-10-22T11:02:53.230Z,3.37
2022-10-22T11:05:28.113Z,2.13
2022-10-22T11:08:14.581Z,2.70
2022-10-22T11:10:54.640Z,3.00
2022-10-22T11:13:30.852Z,4.90
2022-10-22T11:16:24.336Z,3.70
2022-10-22T11:19:22.657Z,5.53
2022-10-22T11:22:05.400Z,2.33
2022-10-22T11:25:00.325Z,3.00
2022-10-22T11:27:47.540Z,1.90
2022-10-22T11:30:18.122Z,2.70
2022-10-22T11:32:49.859Z,2.93
2022-10-22T11:35:25.959Z,5.67
2022-10-22T11:37:56.202Z,9.83
2022-10-22T11:40:35.695Z,4.60
2022-10-22T11:43:09.232Z,11.63
2022-10-22T11:45:39.032Z,8.17
2022-10-22T11:48:11.657Z,1.80
2022-10-22T11:50:47.042Z,4.73
2022-10-22T11:53:13.623Z,3.87
2022-10-22T11:55:45.471Z,2.17
2022-10-22T11:58:35.214Z,5.50
2022-10-22T12:01:01.702Z,4.53
2022-10-22T12:03:31.085Z,2.07
2022-10-22T12:06:12.824Z,5.53
2022-10-22T12:09:07.137Z,3.20
2022-10-22T12:11:49.406Z,2.40
2022-10-22T12:14:29.598Z,1.13
2022-10-22T12:16:58.696Z,5.57
2022-10-22T12:19:31.672Z,5.40
2022-10-22T12:22:10.143Z,2.90
2022-10-22T12:24:40.516Z,2.27
2022-10-22T12:27:33.021Z,2.60
2022-10-22T12:30:01.353Z,2.20
2022-10-22T12:32:41.122Z,2.13
2022-10-22T12:35:14.406Z,1.40
2022-10-22T12:37:41.295Z,3.27
2022-10-22T12:40:29.748Z,2.13
2022-10-22T12:42:59.104Z,3.20
2022-10-22T12:45:32.513Z,1.27
2022-10-22T12:48:32.599Z,1.60
2022-10-22T12:51:01.807Z,2.30
2022-10-22T12:53:32.905Z,7.50
2022-10-22T12:56:06.088Z,3.70
2022-10-22T12:58:43.268Z,4.10
2022-10-22T13:01:15.991Z,2.37
2022-10-22T13:03:51.055Z,3.17
2022-10-22T13:06:20.564Z,3.10
2022-10-22T13:09:14.151Z,1.87
2022-10-22T13:11:48.317Z,1.97
2022-10-22T13:14:30.205Z,3.33
2022-10-22T13:17:43.540Z,3.80
2022-10-22T13:20:21.582Z,5.90
2022-10-22T13:23:03.224Z,1.63
2022-10-22T13:25:35.481Z,5.80
2022-10-22T13:28:12.545Z,3.23
2022-10-22T13:30:51.134Z,3.63
2022-10-22T13:33:27.226Z,3.07
2022-10-22T13:35:55.867Z,4.37
2022-10-22T13:38:27.307Z,2.73
2022-10-22T13:40:54.430Z,2.97
2022-10-22T13:43:21.306Z,2.57
2022-10-22T13:45:51.947Z,3.47
2022-10-22T13:48:21.848Z,5.07
2022-10-22T13:50:50.117Z,3.00
2022-10-22T13:53:20.525Z,2.80
2022-10-22T13:55:47.487Z,2.37
2022-10-22T14:00:55.391Z,2.00
2022-10-22T14:03:26.184Z,1.60
2022-10-22T14:05:52.729Z,2.23
2022-10-22T14:08:22.162Z,3.00
2022-10-22T14:10:48.893Z,6.10
2022-10-22T14:13:17.379Z,4.33
2022-10-22T14:15:46.493Z,5.30
2022-10-22T14:18:24.006Z,5.23
2022-10-22T14:20:53.401Z,3.83
2022-10-22T14:23:22.038Z,5.27
2022-10-22T14:25:50.922Z,7.87
2022-10-22T14:28:17.956Z,4.40
2022-10-22T14:30:45.251Z,1.67
2022-10-22T14:33:32.677Z,1.53
2022-10-22T14:36:00.452Z,5.37
2022-10-22T14:38:27.700Z,4.67
2022-10-22T14:40:54.687Z,1.40
2022-10-22T14:43:23.096Z,1.83
2022-10-22T14:45:49.974Z,6.90
2022-10-22T14:48:17.421Z,1.90
2022-10-22T14:50:45.376Z,4.83
2022-10-22T14:53:16.565Z,2.27
2022-10-22T14:55:44.116Z,3.33
2022-10-22T14:58:12.198Z,9.73
2022-10-22T15:00:41.545Z,3.03
2022-10-22T15:03:08.314Z,2.80
2022-10-22T15:05:36.151Z,2.40
2022-10-22T15:08:02.732Z,3.03
2022-10-22T15:10:29.435Z,2.80
2022-10-22T15:12:55.979Z,4.23
2022-10-22T15:15:23.221Z,1.70
2022-10-22T15:17:51.115Z,1.97
2022-10-22T15:20:17.610Z,1.93
2022-10-22T15:22:45.244Z,1.90
2022-10-22T15:25:13.508Z,2.73
2022-10-22T15:27:40.516Z,3.23
2022-10-22T15:30:07.918Z,2.30
2022-10-22T15:32:34.969Z,2.97
2022-10-22T15:35:01.921Z,1.10
2022-10-22T15:37:28.499Z,2.03
2022-10-22T15:39:55.025Z,1.90
2022-10-22T15:42:23.110Z,1.50
2022-10-22T15:44:49.709Z,5.70
2022-10-22T15:47:16.308Z,2.50
2022-10-22T15:49:42.909Z,3.47
2022-10-22T15:52:09.794Z,4.53
2022-10-22T15:54:36.415Z,3.70
2022-10-22T15:57:05.693Z,3.13
2022-10-22T15:59:32.188Z,2.10
2022-10-22T16:01:58.677Z,1.73
2022-10-22T16:04:25.247Z,1.73
2022-10-22T16:06:53.447Z,2.07
2022-10-22T16:09:25.223Z,1.60
2022-10-22T16:14:25.775Z,1.17
2022-10-22T16:16:55.302Z,2.80
2022-10-22T16:19:23.602Z,4.33
2022-10-22T16:21:51.696Z,3.00
2022-10-22T16:24:18.827Z,2.30
2022-10-22T16:26:45.627Z,3.43
2022-10-22T16:29:12.592Z,3.23
2022-10-22T16:31:40.559Z,1.90
2022-10-22T16:34:07.515Z,3.33
2022-10-22T16:36:36.081Z,2.70
2022-10-22T16:39:03.509Z,3.40
2022-10-22T16:41:35.002Z,1.67
2022-10-22T16:44:04.756Z,2.00
2022-10-22T16:46:32.073Z,2.40
2022-10-22T16:48:58.699Z,1.27
2022-10-22T16:51:27.250Z,2.13
2022-10-22T16:53:55.759Z,1.30
2022-10-22T16:56:22.409Z,1.80
2022-10-22T16:58:51.303Z,1.20
2022-10-22T17:01:19.943Z,1.67
2022-10-22T17:03:47.155Z,2.43
2022-10-22T17:06:14.478Z,2.63
2022-10-22T17:08:42.236Z,2.60
2022-10-22T17:11:11.010Z,2.17
2022-10-22T17:13:39.596Z,3.90
2022-10-22T17:16:10.627Z,1.73
2022-10-22T17:18:38.661Z,1.30
2022-10-22T17:21:06.373Z,3.27
2022-10-22T17:23:32.918Z,1.50
2022-10-22T17:26:01.605Z,3.53
2022-10-22T17:28:29.314Z,2.00
2022-10-22T17:31:06.928Z,2.77
2022-10-22T17:33:34.606Z,1.27
2022-10-22T17:36:01.874Z,3.17
2022-10-22T17:38:28.500Z,1.73
2022-10-22T17:40:56.468Z,2.00
2022-10-22T17:43:22.998Z,1.20
2022-10-22T17:45:49.592Z,4.40
2022-10-22T17:48:16.183Z,2.63
2022-10-22T17:50:46.896Z,2.33
2022-10-22T17:53:16.216Z,1.60
2022-10-22T17:55:42.727Z,2.57
2022-10-22T17:58:09.245Z,2.83
2022-10-22T18:00:35.999Z,1.30
2022-10-22T18:03:02.987Z,1.93
2022-10-22T18:05:29.807Z,2.73
2022-10-22T18:07:56.930Z,1.63
2022-10-22T18:10:23.678Z,4.37
2022-10-22T18:12:50.443Z,6.07
2022-10-22T18:15:17.081Z,2.50
2022-10-22T18:17:43.975Z,1.60
2022-10-22T18:20:11.205Z,1.60
2022-10-22T18:22:37.807Z,1.07
2022-10-22T18:25:04.680Z,2.10
2022-10-22T18:27:31.234Z,1.50
2022-10-22T18:29:57.737Z,1.80
2022-10-22T18:32:24.284Z,2.93
2022-10-22T18:34:50.780Z,2.10
2022-10-22T18:37:17.321Z,1.13
2022-10-22T18:39:43.864Z,1.23
2022-10-22T18:42:10.516Z,38.47
2022-10-22T18:44:37.142Z,39.23
2022-10-22T18:47:03.730Z,22.10
2022-10-22T18:49:30.244Z,21.23
2022-10-22T18:51:56.751Z,28.10
2022-10-22T18:54:24.412Z,21.83
2022-10-22T18:56:52.460Z,24.00
2022-10-22T18:59:21.736Z,20.47
2022-10-22T19:01:48.861Z,25.70
2022-10-22T19:04:15.497Z,18.30
2022-10-22T19:06:45.328Z,12.50
2022-10-22T19:09:13.634Z,17.80
2022-10-22T19:11:40.199Z,12.70
2022-10-22T19:14:06.770Z,12.93
2022-10-22T19:16:34.926Z,10.97
2022-10-22T19:19:23.644Z,13.53
2022-10-22T19:21:51.709Z,13.57
2022-10-22T19:24:27.439Z,12.23
2022-10-22T19:26:54.689Z,9.80
2022-10-22T19:29:22.670Z,11.20
2022-10-22T19:31:50.893Z,13.30
2022-10-22T19:34:18.208Z,12.30
2022-10-22T19:36:44.839Z,16.97
2022-10-22T19:39:15.337Z,9.60
2022-10-22T19:41:41.951Z,9.90
2022-10-22T19:44:10.099Z,10.37
2022-10-22T19:46:36.778Z,15.37
2022-10-22T19:49:04.421Z,11.20
2022-10-22T19:51:33.718Z,15.37
2022-10-22T19:54:06.018Z,7.80
2022-10-22T19:56:33.921Z,7.73
2022-10-22T19:59:00.566Z,8.60
2022-10-22T20:01:27.736Z,11.20
2022-10-22T20:03:54.551Z,7.80
2022-10-22T20:06:21.898Z,7.40
2022-10-22T20:08:51.070Z,11.30
2022-10-22T20:11:23.728Z,10.37
2022-10-22T20:13:52.318Z,8.70
2022-10-22T20:16:22.964Z,7.20
2022-10-22T20:18:50.251Z,10.20
2022-10-22T20:21:19.059Z,9.53
2022-10-22T20:23:46.191Z,6.57
2022-10-22T20:26:13.333Z,8.67
2022-10-22T20:28:40.281Z,18.33
2022-10-22T20:31:11.569Z,17.47
2022-10-22T20:33:38.325Z,15.93
2022-10-22T20:36:08.004Z,13.00
2022-10-22T20:41:09.817Z,20.60
2022-10-22T20:43:36.532Z,11.47
2022-10-22T20:46:03.919Z,12.20
2022-10-22T20:48:31.563Z,9.60
2022-10-22T20:50:59.548Z,9.60
2022-10-22T20:53:26.785Z,10.93
2022-10-22T20:55:56.943Z,10.97
2022-10-22T20:58:25.940Z,10.50
2022-10-22T21:00:54.823Z,9.20
2022-10-22T21:03:21.933Z,6.03
2022-10-22T21:05:48.534Z,10.00
2022-10-22T21:08:17.390Z,9.80
2022-10-22T21:10:48.801Z,9.67
2022-10-22T21:13:16.443Z,10.10
2022-10-22T21:15:42.988Z,9.47
2022-10-22T21:18:09.584Z,10.37
2022-10-22T21:20:36.609Z,8.40
2022-10-22T21:23:03.281Z,9.53
2022-10-22T21:25:29.865Z,6.40
2022-10-22T21:27:56.432Z,8.20
2022-10-22T21:30:23.038Z,6.40
2022-10-22T21:32:49.712Z,9.20
2022-10-22T21:35:16.304Z,7.40
2022-10-22T21:37:43.198Z,7.90
2022-10-22T21:40:10.428Z,9.10
2022-10-22T21:42:37.287Z,8.03
2022-10-22T21:45:04.901Z,6.83
2022-10-22T21:47:33.557Z,6.17
2022-10-22T21:50:00.099Z,10.90
2022-10-22T21:52:26.603Z,7.07
2022-10-22T21:54:53.099Z,6.60
2022-10-22T21:57:19.616Z,12.53
2022-10-22T21:59:46.111Z,7.03
2022-10-22T22:02:12.659Z,16.10
2022-10-22T22:04:39.803Z,6.60
2022-10-22T22:07:06.315Z,6.83
2022-10-22T22:09:32.833Z,5.40
2022-10-22T22:11:59.343Z,6.00
2022-10-22T22:14:25.827Z,6.67
2022-10-22T22:16:52.327Z,7.17
2022-10-22T22:19:18.832Z,4.73
2022-10-22T22:21:45.328Z,7.50
2022-10-22T22:24:12.868Z,6.70
2022-10-22T22:26:39.894Z,7.63
2022-10-22T22:29:06.469Z,4.80
2022-10-22T22:31:34.823Z,6.47
2022-10-22T22:34:04.383Z,9.80
2022-10-22T22:36:36.703Z,5.33
2022-10-22T22:39:05.456Z,5.20
2022-10-22T22:41:32.128Z,5.40
2022-10-22T22:43:58.642Z,6.40
2022-10-22T22:46:25.271Z,4.93
2022-10-22T22:48:52.076Z,6.53
2022-10-22T22:51:18.655Z,6.60
2022-10-22T22:53:45.593Z,5.43
2022-10-22T22:56:16.150Z,6.10
2022-10-22T22:58:43.694Z,6.73
2022-10-22T23:01:16.737Z,6.63
2022-10-22T23:03:45.076Z,8.13
2022-10-22T23:06:12.701Z,6.90
2022-10-22T23:08:39.705Z,10.23
2022-10-22T23:11:09.148Z,4.87
2022-10-22T23:13:36.033Z,4.77
2022-10-22T23:16:07.956Z,7.50
2022-10-22T23:18:35.147Z,4.73
2022-10-22T23:21:15.954Z,4.80
2022-10-22T23:23:44.750Z,8.30
2022-10-22T23:26:17.343Z,5.20
2022-10-22T23:28:43.862Z,4.57
2022-10-22T23:31:15.430Z,5.13
2022-10-22T23:33:42.810Z,5.73
2022-10-22T23:36:10.112Z,4.57
2022-10-22T23:38:38.403Z,4.73
2022-10-22T23:41:05.521Z,5.00
2022-10-22T23:43:35.908Z,6.80
2022-10-22T23:46:04.239Z,6.93
2022-10-22T23:48:31.230Z,5.83
2022-10-22T23:50:57.775Z,5.37
2022-10-22T23:53:24.285Z,5.60
2022-10-22T23:55:50.807Z,5.67
2022-10-22T23:58:17.360Z,4.73
